Time;durP1;ratioP1;P1;durP2;ratioP2;P2;SDS_P1;SDS_P2;PMS_P1;PMS_P2;Temp;Humidity;BMP_temperature;BMP_pressure;BME280_temperature;BME280_humidity;BME280_pressure;Samples;Min_cycle;Max_cycle;Signal;HPM_P1;HPM_P2
2023/08/03 00:01:53;;;;;;;;;;;18.00;99.90;;;;;;5069374;28;19969;-67
2023/08/03 00:04:19;;;;;;;;;;;17.90;99.90;;;;;;5070399;28;20349;-69
2023/08/03 00:06:44;;;;;;;;;;;17.90;99.90;;;;;;5070677;28;20349;-69
2023/08/03 00:09:10;;;;;;;;;;;18.00;99.90;;;;;;5073789;28;20330;-69
2023/08/03 00:11:36;;;;;;;;;;;17.90;99.90;;;;;;5074253;28;19908;-68
2023/08/03 00:14:01;;;;;;;;;;;17.90;99.90;;;;;;5073777;28;19908;-69
2023/08/03 00:16:27;;;;;;;;;;;17.90;99.90;;;;;;5073992;28;20014;-68
2023/08/03 00:18:52;;;;;;;;;;;17.90;99.90;;;;;;5073898;28;19987;-67
2023/08/03 00:21:18;;;;;;;;;;;18.00;99.90;;;;;;5073991;28;20377;-69
2023/08/03 00:23:43;;;;;;;;;;;17.90;99.90;;;;;;5073914;28;19908;-68
2023/08/03 00:26:09;;;;;;;;;;;17.80;99.90;;;;;;5073438;28;20053;-68
2023/08/03 00:28:35;;;;;;;;;;;17.80;99.90;;;;;;5072322;28;19908;-68
2023/08/03 00:31:00;;;;;;;;;;;17.80;99.90;;;;;;5073589;28;20207;-69
2023/08/03 00:33:26;;;;;;;;;;;17.80;99.90;;;;;;5072154;28;20357;-68
2023/08/03 00:35:52;;;;;;;;;;;17.80;99.90;;;;;;5073752;28;19915;-69
2023/08/03 00:38:17;;;;;;;;;;;17.80;99.90;;;;;;5073399;28;19912;-70
2023/08/03 00:40:43;;;;;;;;;;;17.80;99.90;;;;;;5073261;28;20365;-69
2023/08/03 00:43:09;;;;;;;;;;;17.80;99.90;;;;;;5072073;28;20338;-68
2023/08/03 00:45:34;;;;;;;;;;;17.80;99.90;;;;;;5072119;28;19923;-68
2023/08/03 00:48:00;;;;;;;;;;;17.80;99.90;;;;;;5073659;28;19911;-68
2023/08/03 00:50:26;;;;;;;;;;;17.70;99.90;;;;;;5071952;28;19966;-68
2023/08/03 00:52:51;;;;;;;;;;;17.70;99.90;;;;;;5071709;28;19909;-69
2023/08/03 00:55:17;;;;;;;;;;;17.70;99.90;;;;;;5071972;28;19919;-69
2023/08/03 00:57:42;;;;;;;;;;;17.70;99.90;;;;;;5073219;28;20370;-68
2023/08/03 01:00:08;;;;;;;;;;;17.70;99.90;;;;;;5071884;28;19909;-69
2023/08/03 01:02:34;;;;;;;;;;;17.70;99.90;;;;;;5073270;28;20357;-67
2023/08/03 01:04:59;;;;;;;;;;;17.70;99.90;;;;;;5071680;28;20297;-68
2023/08/03 01:07:25;;;;;;;;;;;17.70;99.90;;;;;;5071556;28;19952;-69
2023/08/03 01:09:51;;;;;;;;;;;17.60;99.90;;;;;;5072649;28;19975;-68
2023/08/03 01:12:17;;;;;;;;;;;17.70;99.90;;;;;;5072413;28;19955;-68
2023/08/03 01:14:43;;;;;;;;;;;17.60;99.90;;;;;;5073067;28;19944;-69
2023/08/03 01:17:09;;;;;;;;;;;17.60;99.90;;;;;;5072477;28;19965;-68
2023/08/03 01:19:35;;;;;;;;;;;17.60;99.90;;;;;;5071715;28;19909;-68
2023/08/03 01:22:00;;;;;;;;;;;17.50;99.90;;;;;;5072574;28;20222;-68
2023/08/03 01:24:26;;;;;;;;;;;17.50;99.90;;;;;;5072254;28;19913;-69
2023/08/03 01:26:53;;;;;;;;;;;17.50;99.90;;;;;;5072648;28;19947;-68
2023/08/03 01:29:18;;;;;;;;;;;17.50;99.90;;;;;;5072443;28;19939;-68
2023/08/03 01:31:44;;;;;;;;;;;17.50;99.90;;;;;;5072331;28;19912;-68
2023/08/03 01:34:13;;;;;;;;;;;17.50;99.90;;;;;;5072101;28;19920;-68
2023/08/03 01:36:38;;;;;;;;;;;17.50;99.90;;;;;;5087481;28;19919;-69
2023/08/03 01:39:05;;;;;;;;;;;17.50;99.90;;;;;;5092339;28;20207;-68
2023/08/03 01:41:32;;;;;;;;;;;17.50;99.90;;;;;;5093393;28;20352;-69
2023/08/03 01:44:16;;;;;;;;;;;17.50;99.90;;;;;;5093587;28;20054;-68
2023/08/03 01:46:41;;;;;;;;;;;17.50;99.90;;;;;;5092718;28;19954;-68
2023/08/03 01:49:07;;;;;;;;;;;17.50;99.90;;;;;;5092653;28;20239;-68
2023/08/03 01:51:32;;;;;;;;;;;17.50;99.90;;;;;;5092767;28;20396;-69
2023/08/03 01:53:58;;;;;;;;;;;17.50;99.90;;;;;;5093196;28;19959;-68
2023/08/03 01:56:24;;;;;;;;;;;17.50;99.90;;;;;;5092487;28;19912;-69
2023/08/03 01:58:49;;;;;;;;;;;17.50;99.90;;;;;;5090650;28;20379;-69
2023/08/03 02:01:15;;;;;;;;;;;17.50;99.90;;;;;;5092055;28;19961;-68
2023/08/03 02:03:40;;;;;;;;;;;17.60;99.90;;;;;;5091281;28;20342;-68
2023/08/03 02:06:06;;;;;;;;;;;17.60;99.90;;;;;;5092121;28;20337;-69
2023/08/03 02:08:31;;;;;;;;;;;17.60;99.90;;;;;;5093248;28;19904;-68
2023/08/03 02:10:57;;;;;;;;;;;17.60;99.90;;;;;;5092177;28;20262;-67
2023/08/03 02:13:23;;;;;;;;;;;17.60;99.90;;;;;;5091707;28;20213;-68
2023/08/03 02:15:48;;;;;;;;;;;17.70;99.90;;;;;;5092083;28;19912;-69
2023/08/03 02:18:14;;;;;;;;;;;17.70;99.90;;;;;;5090763;28;19908;-69
2023/08/03 02:20:39;;;;;;;;;;;17.60;99.90;;;;;;5092109;28;19958;-68
2023/08/03 02:23:05;;;;;;;;;;;17.70;99.90;;;;;;5090438;28;19908;-68
2023/08/03 02:25:30;;;;;;;;;;;17.60;99.90;;;;;;5091788;28;20361;-68
2023/08/03 02:27:56;;;;;;;;;;;17.70;99.90;;;;;;5091647;28;19916;-67
2023/08/03 02:30:21;;;;;;;;;;;17.60;99.90;;;;;;5090374;28;19915;-69
2023/08/03 02:32:47;;;;;;;;;;;17.70;99.90;;;;;;5091728;28;20341;-69
2023/08/03 02:35:13;;;;;;;;;;;17.70;99.90;;;;;;5091269;28;19919;-69
2023/08/03 02:37:38;;;;;;;;;;;17.70;99.90;;;;;;5089989;28;19920;-69
2023/08/03 02:40:08;;;;;;;;;;;17.70;99.90;;;;;;5091099;28;19912;-68
2023/08/03 02:42:34;;;;;;;;;;;17.70;99.90;;;;;;5091254;28;19919;-69
2023/08/03 02:44:59;;;;;;;;;;;17.70;99.90;;;;;;5091471;28;20367;-67
2023/08/03 02:47:25;;;;;;;;;;;17.70;99.90;;;;;;5091318;28;19908;-68
2023/08/03 02:49:50;;;;;;;;;;;17.70;99.90;;;;;;5090026;28;20326;-68
2023/08/03 02:52:16;;;;;;;;;;;17.80;99.90;;;;;;5091361;28;19923;-69
2023/08/03 02:54:41;;;;;;;;;;;17.70;99.90;;;;;;5091161;28;19908;-69
2023/08/03 02:57:07;;;;;;;;;;;17.80;99.90;;;;;;5091343;28;20369;-68
2023/08/03 02:59:33;;;;;;;;;;;17.80;99.90;;;;;;5090727;28;19900;-68
2023/08/03 03:01:58;;;;;;;;;;;17.80;99.90;;;;;;5091082;28;19912;-67
2023/08/03 03:04:24;;;;;;;;;;;17.80;99.90;;;;;;5090822;28;20341;-67
2023/08/03 03:06:49;;;;;;;;;;;17.80;99.90;;;;;;5089745;28;20330;-68
2023/08/03 03:09:15;;;;;;;;;;;17.70;99.90;;;;;;5090760;28;20333;-68
2023/08/03 03:11:40;;;;;;;;;;;17.70;99.90;;;;;;5091231;28;19904;-68
2023/08/03 03:14:06;;;;;;;;;;;17.70;99.90;;;;;;5090722;28;19912;-69
2023/08/03 03:16:31;;;;;;;;;;;17.60;99.90;;;;;;5089832;28;20235;-67
2023/08/03 03:18:57;;;;;;;;;;;17.50;99.90;;;;;;5089607;28;20333;-68
2023/08/03 03:21:22;;;;;;;;;;;17.50;99.90;;;;;;5090674;28;20314;-68
2023/08/03 03:23:48;;;;;;;;;;;17.50;99.90;;;;;;5090121;28;19959;-68
2023/08/03 03:26:13;;;;;;;;;;;17.50;99.90;;;;;;5090993;28;20242;-68
2023/08/03 03:28:40;;;;;;;;;;;17.40;99.90;;;;;;5089670;28;19944;-68
2023/08/03 03:31:05;;;;;;;;;;;17.40;99.90;;;;;;5090770;28;20145;-68
2023/08/03 03:33:31;;;;;;;;;;;17.40;99.90;;;;;;5090516;28;19920;-68
2023/08/03 03:35:56;;;;;;;;;;;17.30;99.90;;;;;;5091340;28;20333;-68
2023/08/03 03:38:22;;;;;;;;;;;17.30;99.90;;;;;;5090647;28;20021;-68
2023/08/03 03:40:47;;;;;;;;;;;17.20;99.90;;;;;;5090556;28;19931;-68
2023/08/03 03:43:13;;;;;;;;;;;17.20;99.90;;;;;;5093669;28;19923;-67
2023/08/03 03:45:38;;;;;;;;;;;17.20;99.90;;;;;;5094526;28;20230;-68
2023/08/03 03:48:04;;;;;;;;;;;17.10;99.90;;;;;;5094471;28;20361;-68
2023/08/03 03:50:29;;;;;;;;;;;17.20;99.90;;;;;;5095169;28;19900;-68
2023/08/03 03:52:55;;;;;;;;;;;17.20;99.90;;;;;;5094516;28;20378;-69
2023/08/03 03:55:21;;;;;;;;;;;17.20;99.90;;;;;;5094320;28;19947;-69
2023/08/03 03:57:46;;;;;;;;;;;17.20;99.90;;;;;;5094177;28;19908;-68
2023/08/03 04:00:12;;;;;;;;;;;17.20;99.90;;;;;;5093134;28;20242;-69
2023/08/03 04:02:37;;;;;;;;;;;17.20;99.90;;;;;;5094767;28;19968;-69
2023/08/03 04:05:03;;;;;;;;;;;17.20;99.90;;;;;;5094311;28;19939;-68
2023/08/03 04:07:29;;;;;;;;;;;17.20;99.90;;;;;;5094386;28;20358;-68
2023/08/03 04:09:54;;;;;;;;;;;17.20;99.90;;;;;;5093141;28;19915;-69
2023/08/03 04:12:19;;;;;;;;;;;17.30;99.90;;;;;;5092871;28;19908;-68
2023/08/03 04:14:45;;;;;;;;;;;17.20;99.90;;;;;;5094603;28;19915;-68
2023/08/03 04:17:11;;;;;;;;;;;17.20;99.90;;;;;;5093755;28;19919;-69
2023/08/03 04:19:36;;;;;;;;;;;17.30;99.90;;;;;;5093801;28;19977;-68
2023/08/03 04:22:02;;;;;;;;;;;17.30;99.90;;;;;;5093844;28;20218;-68
2023/08/03 04:24:28;;;;;;;;;;;17.30;99.90;;;;;;5093606;28;19908;-68
2023/08/03 04:26:54;;;;;;;;;;;17.40;99.90;;;;;;5094434;28;19908;-69
2023/08/03 04:29:19;;;;;;;;;;;17.40;99.90;;;;;;5093753;28;20242;-69
2023/08/03 04:31:45;;;;;;;;;;;17.30;99.90;;;;;;5092680;28;19922;-69
2023/08/03 04:34:11;;;;;;;;;;;17.40;99.90;;;;;;5093524;28;20319;-69
2023/08/03 04:36:36;;;;;;;;;;;17.40;99.90;;;;;;5093671;28;20367;-67
2023/08/03 04:39:01;;;;;;;;;;;17.40;99.90;;;;;;5093449;28;19915;-68
2023/08/03 04:41:27;;;;;;;;;;;17.40;99.90;;;;;;5094131;28;20333;-68
2023/08/03 04:43:53;;;;;;;;;;;17.40;99.90;;;;;;5093413;28;19908;-68
2023/08/03 04:46:19;;;;;;;;;;;17.40;99.90;;;;;;5093221;28;19920;-69
2023/08/03 04:48:44;;;;;;;;;;;17.40;99.90;;;;;;5093381;28;19916;-68
2023/08/03 04:51:10;;;;;;;;;;;17.30;99.90;;;;;;5093565;28;19904;-68
2023/08/03 04:53:35;;;;;;;;;;;17.30;99.90;;;;;;5092406;28;20507;-68
2023/08/03 04:56:01;;;;;;;;;;;17.40;99.90;;;;;;5093141;28;20011;-69
2023/08/03 04:58:27;;;;;;;;;;;17.40;99.90;;;;;;5093099;28;19918;-69
2023/08/03 05:00:52;;;;;;;;;;;17.40;99.90;;;;;;5092992;28;19908;-68
2023/08/03 05:03:18;;;;;;;;;;;17.30;99.90;;;;;;5093249;28;19969;-70
2023/08/03 05:05:43;;;;;;;;;;;17.40;99.90;;;;;;5092435;28;19912;-69
2023/08/03 05:08:09;;;;;;;;;;;17.40;99.90;;;;;;5093121;28;19934;-68
2023/08/03 05:10:34;;;;;;;;;;;17.40;99.90;;;;;;5092951;28;20385;-69
2023/08/03 05:13:00;;;;;;;;;;;17.40;99.90;;;;;;5092663;28;19908;-67
2023/08/03 05:15:25;;;;;;;;;;;17.40;99.90;;;;;;5092581;28;19947;-69
2023/08/03 05:17:51;;;;;;;;;;;17.30;99.90;;;;;;5091978;28;19904;-68
2023/08/03 05:20:17;;;;;;;;;;;17.40;99.90;;;;;;5092498;28;20004;-68
2023/08/03 05:22:43;;;;;;;;;;;17.40;99.90;;;;;;5092634;28;19993;-68
2023/08/03 05:25:08;;;;;;;;;;;17.40;99.90;;;;;;5091413;28;20346;-68
2023/08/03 05:27:34;;;;;;;;;;;17.50;99.90;;;;;;5091493;28;20354;-68
2023/08/03 05:29:59;;;;;;;;;;;17.60;99.90;;;;;;5092030;28;20342;-69
2023/08/03 05:32:25;;;;;;;;;;;17.50;99.90;;;;;;5092430;28;19999;-67
2023/08/03 05:34:51;;;;;;;;;;;17.50;99.90;;;;;;5092490;28;20274;-68
2023/08/03 05:37:16;;;;;;;;;;;17.50;99.90;;;;;;5092605;28;19912;-68
2023/08/03 05:39:42;;;;;;;;;;;17.50;99.90;;;;;;5092128;28;20334;-69
2023/08/03 05:42:11;;;;;;;;;;;17.50;99.90;;;;;;5091846;28;20330;-69
2023/08/03 05:44:36;;;;;;;;;;;17.50;99.90;;;;;;5092469;28;20014;-69
2023/08/03 05:47:02;;;;;;;;;;;17.50;99.90;;;;;;5091951;28;20320;-68
2023/08/03 05:49:28;;;;;;;;;;;17.50;99.90;;;;;;5092163;28;19908;-69
2023/08/03 05:51:53;;;;;;;;;;;17.50;99.90;;;;;;5091979;28;20321;-68
2023/08/03 05:54:19;;;;;;;;;;;17.50;99.90;;;;;;5092146;28;19908;-68
2023/08/03 05:56:46;;;;;;;;;;;17.50;99.90;;;;;;5092279;28;20002;-68
2023/08/03 05:59:22;;;;;;;;;;;17.50;99.90;;;;;;5091862;28;19908;-69
2023/08/03 06:01:51;;;;;;;;;;;17.50;99.90;;;;;;5091846;28;19940;-68
2023/08/03 06:04:17;;;;;;;;;;;17.50;99.90;;;;;;5091607;28;20330;-68
2023/08/03 06:06:43;;;;;;;;;;;17.60;99.90;;;;;;5091443;28;19912;-68
2023/08/03 06:09:09;;;;;;;;;;;17.60;99.90;;;;;;5091003;28;19919;-68
2023/08/03 06:11:35;;;;;;;;;;;17.50;99.90;;;;;;5092072;28;19900;-70
2023/08/03 06:14:01;;;;;;;;;;;17.60;99.90;;;;;;5091495;28;20333;-68
2023/08/03 06:16:26;;;;;;;;;;;17.60;99.90;;;;;;5091447;28;19911;-69
2023/08/03 06:18:53;;;;;;;;;;;17.60;99.90;;;;;;5091379;28;19908;-69
2023/08/03 06:21:19;;;;;;;;;;;17.60;99.90;;;;;;5090726;28;19919;-69
2023/08/03 06:23:46;;;;;;;;;;;17.60;99.90;;;;;;5091835;28;19912;-68
2023/08/03 06:26:12;;;;;;;;;;;17.60;99.90;;;;;;5091220;28;19947;-68
2023/08/03 06:28:38;;;;;;;;;;;17.60;99.90;;;;;;5090195;28;20294;-68
2023/08/03 06:31:11;;;;;;;;;;;17.60;99.90;;;;;;5091497;28;20018;-68
2023/08/03 06:33:37;;;;;;;;;;;17.60;99.90;;;;;;5089965;28;19931;-69
2023/08/03 06:36:03;;;;;;;;;;;17.60;99.90;;;;;;5091399;28;20314;-69
2023/08/03 06:38:29;;;;;;;;;;;17.60;99.90;;;;;;5091937;28;19933;-68
2023/08/03 06:40:54;;;;;;;;;;;17.60;99.90;;;;;;5090088;28;19995;-68
2023/08/03 06:43:20;;;;;;;;;;;17.60;99.90;;;;;;5090083;28;19908;-68
2023/08/03 06:45:45;;;;;;;;;;;17.70;99.90;;;;;;5089942;28;19939;-69
2023/08/03 06:48:11;;;;;;;;;;;17.80;99.90;;;;;;5091114;28;20211;-67
2023/08/03 06:50:37;;;;;;;;;;;17.80;99.90;;;;;;5091484;28;19915;-68
2023/08/03 06:53:02;;;;;;;;;;;17.80;99.90;;;;;;5089944;28;20341;-68
2023/08/03 06:55:29;;;;;;;;;;;17.80;99.90;;;;;;5089679;28;19965;-68
2023/08/03 06:57:54;;;;;;;;;;;17.90;99.90;;;;;;5091075;28;19920;-69
2023/08/03 07:00:20;;;;;;;;;;;18.00;99.90;;;;;;5090887;28;19904;-67
2023/08/03 07:02:46;;;;;;;;;;;18.00;99.90;;;;;;5091140;28;20322;-68
2023/08/03 07:05:12;;;;;;;;;;;18.10;99.90;;;;;;5091129;28;19919;-68
2023/08/03 07:07:37;;;;;;;;;;;18.10;99.90;;;;;;5090841;28;19912;-69
2023/08/03 07:10:03;;;;;;;;;;;18.20;99.90;;;;;;5090815;28;19912;-68
2023/08/03 07:12:29;;;;;;;;;;;18.30;99.90;;;;;;5090763;28;20273;-68
2023/08/03 07:14:55;;;;;;;;;;;18.40;99.90;;;;;;5090279;28;19903;-68
2023/08/03 07:17:21;;;;;;;;;;;18.40;99.90;;;;;;5092116;28;19912;-67
2023/08/03 07:19:51;;;;;;;;;;;18.50;99.90;;;;;;5094817;28;19922;-68
2023/08/03 07:22:20;;;;;;;;;;;18.50;99.90;;;;;;5093916;28;19912;-68
2023/08/03 07:24:45;;;;;;;;;;;18.50;99.90;;;;;;5094593;28;19923;-68
2023/08/03 07:27:11;;;;;;;;;;;18.50;99.90;;;;;;5093768;28;19904;-69
2023/08/03 07:29:36;;;;;;;;;;;18.50;99.90;;;;;;5094257;28;20037;-69
2023/08/03 07:32:03;;;;;;;;;;;18.50;99.90;;;;;;5094741;28;19955;-68
2023/08/03 07:34:28;;;;;;;;;;;18.50;99.90;;;;;;5094472;28;19920;-68
2023/08/03 07:36:54;;;;;;;;;;;18.50;99.90;;;;;;5094612;28;19973;-69
2023/08/03 07:39:20;;;;;;;;;;;18.50;99.90;;;;;;5094933;28;19907;-68
2023/08/03 07:41:46;;;;;;;;;;;18.50;99.90;;;;;;5095211;28;19904;-68
2023/08/03 07:44:11;;;;;;;;;;;18.60;99.90;;;;;;5093399;28;19908;-68
2023/08/03 07:46:37;;;;;;;;;;;18.50;99.90;;;;;;5094494;28;19923;-68
2023/08/03 07:49:02;;;;;;;;;;;18.50;99.90;;;;;;5094336;28;19908;-69
2023/08/03 07:51:28;;;;;;;;;;;18.60;99.90;;;;;;5093314;28;20234;-68
2023/08/03 07:53:54;;;;;;;;;;;18.70;99.90;;;;;;5094683;28;20338;-68
2023/08/03 07:56:20;;;;;;;;;;;18.80;99.90;;;;;;5093892;28;19912;-68
2023/08/03 07:58:46;;;;;;;;;;;18.90;99.90;;;;;;5094213;28;19908;-68
2023/08/03 08:01:12;;;;;;;;;;;18.90;99.90;;;;;;5094020;28;20322;-68
2023/08/03 08:03:38;;;;;;;;;;;18.80;99.90;;;;;;5093903;28;19968;-68
2023/08/03 08:06:08;;;;;;;;;;;18.80;99.90;;;;;;5094094;28;19972;-69
2023/08/03 08:08:33;;;;;;;;;;;18.70;99.90;;;;;;5094526;28;19903;-69
2023/08/03 08:10:59;;;;;;;;;;;18.70;99.90;;;;;;5094265;28;19912;-68
2023/08/03 08:13:24;;;;;;;;;;;18.60;99.90;;;;;;5092796;28;20254;-68
2023/08/03 08:15:50;;;;;;;;;;;18.60;99.90;;;;;;5094139;28;19982;-68
2023/08/03 08:18:16;;;;;;;;;;;18.60;99.90;;;;;;5094052;28;19904;-68
2023/08/03 08:20:41;;;;;;;;;;;18.50;99.90;;;;;;5094208;28;19908;-68
2023/08/03 08:23:07;;;;;;;;;;;18.50;99.90;;;;;;5092362;28;20158;-68
2023/08/03 08:25:33;;;;;;;;;;;18.50;99.90;;;;;;5093763;28;20341;-68
2023/08/03 08:27:58;;;;;;;;;;;18.50;99.90;;;;;;5093868;28;19938;-68
2023/08/03 08:30:24;;;;;;;;;;;18.50;99.90;;;;;;5093756;28;20329;-69
2023/08/03 08:32:49;;;;;;;;;;;18.60;99.90;;;;;;5093718;28;19916;-70
2023/08/03 08:35:15;;;;;;;;;;;18.60;99.90;;;;;;5093428;28;20011;-70
2023/08/03 08:37:41;;;;;;;;;;;18.80;99.90;;;;;;5093435;28;19919;-68
2023/08/03 08:40:11;;;;;;;;;;;18.90;99.90;;;;;;5093472;28;19993;-68
2023/08/03 08:42:37;;;;;;;;;;;19.00;99.90;;;;;;5092835;28;19922;-69
2023/08/03 08:45:06;;;;;;;;;;;19.10;99.90;;;;;;5093085;28;19908;-69
2023/08/03 08:47:32;;;;;;;;;;;19.00;99.90;;;;;;5093597;28;19896;-69
2023/08/03 08:49:57;;;;;;;;;;;19.10;99.90;;;;;;5092349;28;19992;-69
2023/08/03 08:52:28;;;;;;;;;;;19.20;99.90;;;;;;5093274;28;20189;-69
2023/08/03 08:55:14;;;;;;;;;;;19.20;99.90;;;;;;5093138;28;19977;-68
2023/08/03 08:57:39;;;;;;;;;;;19.20;99.90;;;;;;5092649;28;19912;-69
2023/08/03 09:00:06;;;;;;;;;;;19.30;99.90;;;;;;5092981;28;19961;-68
2023/08/03 09:02:32;;;;;;;;;;;19.30;99.90;;;;;;5093417;28;19896;-70
2023/08/03 09:05:07;;;;;;;;;;;19.30;99.90;;;;;;5091804;28;19908;-68
2023/08/03 09:07:33;;;;;;;;;;;19.20;99.90;;;;;;5092921;28;19931;-69
2023/08/03 09:10:02;;;;;;;;;;;19.10;99.90;;;;;;5091696;28;20214;-68
2023/08/03 09:12:28;;;;;;;;;;;19.10;99.90;;;;;;5092671;28;19908;-69
2023/08/03 09:14:55;;;;;;;;;;;19.20;99.90;;;;;;5093320;28;20004;-70
2023/08/03 09:17:22;;;;;;;;;;;19.10;99.90;;;;;;5093047;28;19918;-70
2023/08/03 09:19:48;;;;;;;;;;;19.00;99.90;;;;;;5092684;28;20010;-69
2023/08/03 09:22:14;;;;;;;;;;;19.00;99.90;;;;;;5092735;28;19999;-71
2023/08/03 09:24:40;;;;;;;;;;;19.00;99.90;;;;;;5092414;28;20000;-68
2023/08/03 09:27:05;;;;;;;;;;;19.00;99.90;;;;;;5092448;28;20389;-68
2023/08/03 09:29:31;;;;;;;;;;;19.00;99.90;;;;;;5092993;28;19903;-69
2023/08/03 09:32:01;;;;;;;;;;;18.90;99.90;;;;;;5092422;28;19938;-68
2023/08/03 09:34:37;;;;;;;;;;;18.90;99.90;;;;;;5091012;28;20262;-69
2023/08/03 09:37:03;;;;;;;;;;;18.80;99.90;;;;;;5092189;28;20014;-69
2023/08/03 09:39:32;;;;;;;;;;;18.90;99.90;;;;;;5092067;28;19916;-69
2023/08/03 09:41:59;;;;;;;;;;;18.80;99.90;;;;;;5092495;28;19943;-68
2023/08/03 09:44:25;;;;;;;;;;;18.90;99.90;;;;;;5091914;28;20145;-68
2023/08/03 09:46:51;;;;;;;;;;;18.90;99.90;;;;;;5091941;28;20349;-69
2023/08/03 09:49:17;;;;;;;;;;;18.80;99.90;;;;;;5091885;28;19912;-69
2023/08/03 09:51:43;;;;;;;;;;;18.80;99.90;;;;;;5090722;28;19908;-68
2023/08/03 09:54:17;;;;;;;;;;;18.80;99.90;;;;;;5091898;28;20040;-69
2023/08/03 09:56:52;;;;;;;;;;;18.90;99.90;;;;;;5092315;28;20330;-69
2023/08/03 09:59:22;;;;;;;;;;;19.10;99.90;;;;;;5092106;28;19912;-68
2023/08/03 10:01:48;;;;;;;;;;;19.30;99.90;;;;;;5091812;28;19912;-69
2023/08/03 10:04:15;;;;;;;;;;;19.30;99.90;;;;;;5091829;28;19919;-69
2023/08/03 10:06:42;;;;;;;;;;;19.50;99.90;;;;;;5091569;28;19912;-69
2023/08/03 10:09:08;;;;;;;;;;;19.60;99.90;;;;;;5090533;28;19966;-70
2023/08/03 10:11:40;;;;;;;;;;;19.80;99.90;;;;;;5092038;28;19944;-69
2023/08/03 10:14:09;;;;;;;;;;;19.80;99.90;;;;;;5090517;28;20251;-69
2023/08/03 10:16:35;;;;;;;;;;;19.90;99.90;;;;;;5091438;28;19976;-69
2023/08/03 10:19:01;;;;;;;;;;;20.00;99.90;;;;;;5091538;28;20008;-69
2023/08/03 10:21:28;;;;;;;;;;;19.90;99.90;;;;;;5090451;28;20373;-69
2023/08/03 10:24:07;;;;;;;;;;;19.90;99.90;;;;;;5090783;28;19915;-69
2023/08/03 10:26:32;;;;;;;;;;;19.80;99.90;;;;;;5091467;28;20303;-68
2023/08/03 10:28:58;;;;;;;;;;;19.90;99.90;;;;;;5091693;28;19911;-71
2023/08/03 10:31:24;;;;;;;;;;;20.00;99.90;;;;;;5091334;28;19912;-70
2023/08/03 10:33:49;;;;;;;;;;;20.00;99.90;;;;;;5091176;28;19924;-70
2023/08/03 10:36:30;;;;;;;;;;;20.00;99.90;;;;;;5091352;28;19916;-70
2023/08/03 10:38:57;;;;;;;;;;;20.00;99.90;;;;;;5091674;28;19911;-70
2023/08/03 10:41:38;;;;;;;;;;;20.10;99.90;;;;;;5091297;28;19908;-69
2023/08/03 10:44:10;;;;;;;;;;;20.30;99.90;;;;;;5089955;28;19923;-70
2023/08/03 10:46:40;;;;;;;;;;;20.50;99.90;;;;;;5090894;28;19912;-69
2023/08/03 10:49:18;;;;;;;;;;;20.40;99.90;;;;;;5091065;28;19981;-69
2023/08/03 10:51:47;;;;;;;;;;;20.40;99.90;;;;;;5090246;28;19918;-70
2023/08/03 10:54:12;;;;;;;;;;;20.50;99.90;;;;;;5090908;28;19914;-69
2023/08/03 10:56:38;;;;;;;;;;;20.30;99.90;;;;;;5091239;28;20455;-70
2023/08/03 10:59:04;;;;;;;;;;;20.20;99.90;;;;;;5091104;28;19912;-69
2023/08/03 11:01:30;;;;;;;;;;;20.10;99.90;;;;;;5091007;28;20008;-69
2023/08/03 11:03:55;;;;;;;;;;;20.00;99.90;;;;;;5090961;28;19950;-69
2023/08/03 11:06:22;;;;;;;;;;;20.10;99.90;;;;;;5090649;28;20006;-69
2023/08/03 11:08:47;;;;;;;;;;;19.90;99.90;;;;;;5090381;28;20005;-70
2023/08/03 11:11:16;;;;;;;;;;;19.90;99.90;;;;;;5090791;28;20338;-70
2023/08/03 11:13:45;;;;;;;;;;;20.00;99.90;;;;;;5089766;28;19907;-71
2023/08/03 11:16:14;;;;;;;;;;;19.90;99.90;;;;;;5089511;28;20123;-70
2023/08/03 11:18:44;;;;;;;;;;;19.80;99.90;;;;;;5090586;28;20292;-70
2023/08/03 11:21:09;;;;;;;;;;;19.70;99.90;;;;;;5090730;28;20365;-69
2023/08/03 11:23:35;;;;;;;;;;;19.70;99.90;;;;;;5091032;28;20086;-69
2023/08/03 11:26:06;;;;;;;;;;;19.70;99.90;;;;;;5090523;28;19912;-69
2023/08/03 11:28:44;;;;;;;;;;;19.60;99.90;;;;;;5090676;28;19908;-69
2023/08/03 11:31:20;;;;;;;;;;;19.60;99.90;;;;;;5090420;28;20336;-69
2023/08/03 11:33:52;;;;;;;;;;;19.60;99.90;;;;;;5090370;28;20259;-69
2023/08/03 11:36:18;;;;;;;;;;;19.70;99.90;;;;;;5090574;28;19908;-69
2023/08/03 11:38:44;;;;;;;;;;;19.70;99.90;;;;;;5089926;28;20241;-69
2023/08/03 11:41:13;;;;;;;;;;;19.70;99.90;;;;;;5090638;28;19911;-70
2023/08/03 11:43:39;;;;;;;;;;;19.60;99.90;;;;;;5089271;28;19919;-70
2023/08/03 11:46:04;;;;;;;;;;;19.50;99.90;;;;;;5090238;28;19916;-69
2023/08/03 11:48:30;;;;;;;;;;;19.40;99.90;;;;;;5089171;28;19919;-69
2023/08/03 11:50:55;;;;;;;;;;;19.50;99.90;;;;;;5090984;28;19904;-69
2023/08/03 11:53:25;;;;;;;;;;;19.50;99.90;;;;;;5090392;28;19919;-69
2023/08/03 11:55:51;;;;;;;;;;;19.50;99.90;;;;;;5090449;28;20676;-70
2023/08/03 11:58:16;;;;;;;;;;;19.40;99.90;;;;;;5090444;28;19936;-69
2023/08/03 12:00:43;;;;;;;;;;;19.40;99.90;;;;;;5089268;28;19908;-69
2023/08/03 12:03:09;;;;;;;;;;;19.30;99.90;;;;;;5090347;28;19904;-71
2023/08/03 12:05:41;;;;;;;;;;;19.30;99.90;;;;;;5094604;28;19908;-69
2023/08/03 12:08:08;;;;;;;;;;;19.20;99.90;;;;;;5094476;28;19916;-69
2023/08/03 12:10:34;;;;;;;;;;;19.10;99.90;;;;;;5094021;28;20401;-68
2023/08/03 12:12:59;;;;;;;;;;;19.00;99.90;;;;;;5093906;28;20106;-68
2023/08/03 12:15:25;;;;;;;;;;;19.00;99.90;;;;;;5093979;28;19908;-69
2023/08/03 12:17:50;;;;;;;;;;;19.00;99.90;;;;;;5094187;28;20219;-68
2023/08/03 12:20:16;;;;;;;;;;;19.00;99.90;;;;;;5093820;28;19908;-69
2023/08/03 12:22:41;;;;;;;;;;;18.90;99.90;;;;;;5093593;28;19990;-69
2023/08/03 12:25:08;;;;;;;;;;;18.90;99.90;;;;;;5093839;28;20333;-69
2023/08/03 12:27:33;;;;;;;;;;;18.80;99.90;;;;;;5092360;28;20318;-69
2023/08/03 12:29:59;;;;;;;;;;;18.90;99.90;;;;;;5094206;28;19915;-69
2023/08/03 12:32:24;;;;;;;;;;;18.80;99.90;;;;;;5093319;28;19931;-69
2023/08/03 12:34:50;;;;;;;;;;;18.90;99.90;;;;;;5093790;28;19923;-69
2023/08/03 12:37:15;;;;;;;;;;;19.00;99.90;;;;;;5093581;28;20098;-69
2023/08/03 12:39:41;;;;;;;;;;;19.10;99.90;;;;;;5093496;28;19911;-68
2023/08/03 12:42:06;;;;;;;;;;;19.20;99.90;;;;;;5093595;28;19918;-68
2023/08/03 12:44:32;;;;;;;;;;;19.40;99.90;;;;;;5093671;28;19943;-70
2023/08/03 12:46:58;;;;;;;;;;;19.40;99.90;;;;;;5093217;28;19912;-69
2023/08/03 12:49:23;;;;;;;;;;;19.50;99.90;;;;;;5093388;28;19919;-69
2023/08/03 12:51:49;;;;;;;;;;;19.60;99.90;;;;;;5093142;28;19919;-71
2023/08/03 12:54:14;;;;;;;;;;;19.60;99.90;;;;;;5093114;28;19904;-68
2023/08/03 12:56:40;;;;;;;;;;;19.70;99.90;;;;;;5093483;28;20241;-70
2023/08/03 12:59:06;;;;;;;;;;;19.70;99.90;;;;;;5093470;28;19908;-69
2023/08/03 13:01:32;;;;;;;;;;;19.80;99.90;;;;;;5093044;28;19908;-69
2023/08/03 13:03:57;;;;;;;;;;;19.90;99.90;;;;;;5093063;28;19912;-69
2023/08/03 13:06:23;;;;;;;;;;;20.00;99.90;;;;;;5092729;28;19912;-69
2023/08/03 13:08:48;;;;;;;;;;;20.00;99.90;;;;;;5093245;28;19914;-69
2023/08/03 13:11:14;;;;;;;;;;;20.10;99.90;;;;;;5091935;28;19923;-70
2023/08/03 13:13:40;;;;;;;;;;;20.10;99.90;;;;;;5092637;28;19908;-71
2023/08/03 13:16:05;;;;;;;;;;;20.20;99.90;;;;;;5091979;28;19915;-70
2023/08/03 13:18:31;;;;;;;;;;;20.30;99.90;;;;;;5092558;28;19930;-70
2023/08/03 13:20:58;;;;;;;;;;;20.30;99.90;;;;;;5093020;28;19969;-69
2023/08/03 13:23:23;;;;;;;;;;;20.40;99.90;;;;;;5091178;28;19908;-70
2023/08/03 13:25:49;;;;;;;;;;;20.50;99.90;;;;;;5092279;28;19938;-70
2023/08/03 13:28:15;;;;;;;;;;;20.60;99.90;;;;;;5092455;28;19908;-68
2023/08/03 13:30:40;;;;;;;;;;;20.60;99.90;;;;;;5092522;28;20250;-70
2023/08/03 13:33:06;;;;;;;;;;;20.60;99.90;;;;;;5091182;28;19916;-70
2023/08/03 13:35:31;;;;;;;;;;;20.70;99.90;;;;;;5092750;28;19954;-69
2023/08/03 13:37:57;;;;;;;;;;;20.70;99.90;;;;;;5091376;28;20252;-70
2023/08/03 13:40:23;;;;;;;;;;;20.70;99.90;;;;;;5091174;28;19908;-69
2023/08/03 13:42:48;;;;;;;;;;;20.80;99.90;;;;;;5092581;28;19922;-69
2023/08/03 13:45:14;;;;;;;;;;;20.80;99.90;;;;;;5092060;28;20245;-69
2023/08/03 13:47:40;;;;;;;;;;;20.80;99.90;;;;;;5092565;28;19900;-69
2023/08/03 13:50:06;;;;;;;;;;;20.90;99.90;;;;;;5091094;28;19969;-68
2023/08/03 13:52:31;;;;;;;;;;;20.90;99.90;;;;;;5092037;28;19912;-69
2023/08/03 13:54:57;;;;;;;;;;;20.80;99.90;;;;;;5091858;28;19938;-69
2023/08/03 13:57:22;;;;;;;;;;;20.70;99.90;;;;;;5091892;28;19982;-69
2023/08/03 13:59:48;;;;;;;;;;;20.80;99.90;;;;;;5092706;28;19933;-69
2023/08/03 14:02:13;;;;;;;;;;;20.80;99.90;;;;;;5091764;28;20043;-69
2023/08/03 14:04:39;;;;;;;;;;;20.80;99.90;;;;;;5091962;28;19912;-69
2023/08/03 14:07:05;;;;;;;;;;;20.80;99.90;;;;;;5091866;28;19912;-70
2023/08/03 14:09:31;;;;;;;;;;;20.80;99.90;;;;;;5091847;28;19919;-70
2023/08/03 14:11:56;;;;;;;;;;;20.80;99.90;;;;;;5092205;28;19927;-69